createdAt,value
2019-02-14T00:00:35.787Z,46.71
2019-02-14T00:04:41.503Z,47.51
2019-02-14T00:09:16.815Z,44.45
2019-02-14T00:13:22.553Z,45.32
2019-02-14T00:17:28.258Z,49.57
2019-02-14T00:21:33.978Z,51.80
2019-02-14T00:26:18.822Z,50.71
2019-02-14T00:30:24.529Z,49.39
2019-02-14T00:34:32.082Z,48.32
2019-02-14T00:38:37.839Z,49.45
2019-02-14T00:42:43.544Z,51.63
2019-02-14T00:46:49.264Z,47.79
2019-02-14T00:50:55.030Z,47.77
2019-02-14T00:55:00.733Z,48.67
2019-02-14T00:59:06.439Z,50.46
2019-02-14T01:03:12.146Z,50.17
2019-02-14T01:07:17.811Z,46.91
2019-02-14T01:11:23.500Z,47.23
2019-02-14T01:15:29.531Z,51.05
2019-02-14T01:19:38.117Z,50.04
2019-02-14T01:23:42.604Z,49.94
2019-02-14T01:27:48.389Z,48.03
2019-02-14T01:31:54.144Z,52.60
2019-02-14T01:35:59.843Z,45.22
2019-02-14T01:40:17.354Z,44.45
2019-02-14T01:44:40.906Z,44.22
2019-02-14T01:50:16.358Z,50.87
2019-02-14T02:05:14.669Z,48.63
2019-02-14T02:09:20.348Z,49.94
2019-02-14T02:18:20.119Z,48.30
2019-02-14T02:23:16.666Z,48.72
2019-02-14T02:27:22.457Z,48.41
2019-02-14T02:32:16.219Z,50.60
2019-02-14T02:36:23.521Z,49.56
2019-02-14T02:40:29.358Z,53.89
2019-02-14T02:44:35.038Z,51.69
2019-02-14T02:49:16.648Z,48.30
2019-02-14T02:53:24.013Z,48.29
2019-02-14T03:02:19.738Z,56.69
2019-02-14T03:06:25.437Z,49.72
2019-02-14T03:10:31.291Z,51.25
2019-02-14T03:14:36.977Z,52.18
2019-02-14T03:19:15.303Z,52.78
2019-02-14T03:28:16.937Z,52.41
2019-02-14T03:32:22.617Z,51.57
2019-02-14T03:36:28.327Z,50.90
2019-02-14T03:40:34.087Z,50.20
2019-02-14T03:44:39.764Z,48.60
2019-02-14T03:48:45.436Z,50.05
2019-02-14T03:52:51.208Z,51.92
2019-02-14T03:56:56.899Z,53.13
2019-02-14T04:01:14.417Z,51.96
2019-02-14T04:05:20.137Z,58.37
2019-02-14T04:09:25.796Z,53.46
2019-02-14T04:13:31.635Z,52.11
2019-02-14T04:17:37.327Z,55.92
2019-02-14T04:21:43.008Z,51.17
2019-02-14T04:26:18.055Z,54.93
2019-02-14T04:30:23.726Z,53.58
2019-02-14T04:34:29.589Z,52.86
2019-02-14T04:38:35.288Z,50.19
2019-02-14T04:42:41.129Z,50.16
2019-02-14T04:46:48.050Z,51.42
2019-02-14T04:50:53.812Z,53.06
2019-02-14T04:55:16.925Z,51.10
2019-02-14T04:59:22.613Z,52.93
2019-02-14T05:04:16.261Z,54.74
2019-02-14T05:08:21.945Z,55.07
2019-02-14T05:12:27.694Z,52.07
2019-02-14T05:16:33.397Z,59.40
2019-02-14T05:20:39.091Z,49.70
2019-02-14T05:24:44.780Z,49.71
2019-02-14T05:28:50.503Z,53.57
2019-02-14T05:32:56.222Z,53.99
2019-02-14T05:37:17.222Z,52.65
2019-02-14T05:41:22.909Z,58.80
2019-02-14T05:45:28.649Z,52.23
2019-02-14T05:49:34.318Z,51.81
2019-02-14T06:00:19.143Z,50.23
2019-02-14T06:19:18.339Z,51.84
2019-02-14T06:40:14.416Z,52.31
2019-02-14T06:51:15.315Z,51.53
2019-02-14T07:01:19.710Z,56.58
2019-02-14T07:06:16.122Z,55.31
2019-02-14T07:11:15.878Z,52.54
2019-02-14T07:21:17.293Z,52.15
2019-02-14T07:26:16.938Z,52.87
2019-02-14T07:30:40.171Z,45.81
2019-02-14T08:01:15.133Z,48.42
2019-02-14T08:05:20.830Z,49.63
2019-02-14T08:36:14.539Z,45.92
2019-02-14T08:45:21.304Z,49.14
2019-02-14T08:50:17.433Z,41.95
2019-02-14T08:55:17.140Z,39.55
2019-02-14T09:11:16.112Z,45.66
2019-02-14T09:30:21.420Z,40.58
2019-02-14T09:50:15.310Z,38.67
2019-02-14T09:59:20.189Z,34.79
2019-02-14T10:03:25.899Z,34.51
2019-02-14T10:07:31.590Z,34.48
2019-02-14T10:44:14.830Z,32.30
2019-02-14T10:55:15.929Z,34.03
2019-02-14T11:05:08.908Z,31.05
2019-02-14T11:09:14.602Z,30.92
2019-02-14T11:13:20.484Z,29.15
2019-02-14T11:17:26.794Z,33.67
2019-02-14T11:21:32.507Z,32.29
2019-02-14T11:25:40.028Z,33.10
2019-02-14T11:29:45.750Z,29.35
2019-02-14T11:33:51.542Z,25.67
2019-02-14T11:37:58.304Z,24.40
2019-02-14T11:42:04.282Z,20.73
2019-02-14T11:46:10.073Z,20.10
2019-02-14T11:50:15.831Z,24.74
2019-02-14T11:54:21.497Z,20.90
2019-02-14T11:58:27.212Z,21.26
2019-02-14T12:02:32.986Z,21.28
2019-02-14T12:06:38.733Z,21.24
2019-02-14T12:10:44.491Z,23.93
2019-02-14T12:14:51.490Z,25.08
2019-02-14T12:18:57.182Z,22.84
2019-02-14T12:23:02.906Z,22.99
2019-02-14T12:27:08.776Z,25.59
2019-02-14T12:31:14.569Z,25.27
2019-02-14T12:35:20.328Z,23.66
2019-02-14T12:39:26.035Z,22.84
2019-02-14T12:43:33.374Z,24.59
2019-02-14T12:47:39.077Z,23.21
2019-02-14T12:51:46.420Z,25.70
2019-02-14T12:55:52.119Z,27.60
2019-02-14T12:59:57.811Z,24.48
2019-02-14T13:04:03.557Z,24.18
2019-02-14T13:08:09.267Z,25.13
2019-02-14T13:12:15.163Z,23.36
2019-02-14T13:16:20.876Z,23.55
2019-02-14T13:20:26.654Z,26.44
2019-02-14T13:24:32.344Z,26.37
2019-02-14T13:28:38.054Z,23.65
2019-02-14T13:32:43.790Z,21.25
2019-02-14T13:36:49.495Z,21.49
2019-02-14T13:40:56.836Z,20.49
2019-02-14T13:45:02.533Z,24.81
2019-02-14T13:49:08.313Z,25.58
2019-02-14T13:53:14.069Z,28.63
2019-02-14T13:57:19.785Z,28.35
2019-02-14T14:01:25.517Z,31.20
2019-02-14T14:05:31.259Z,27.86
2019-02-14T14:09:38.987Z,31.43
2019-02-14T14:13:44.337Z,33.86
2019-02-14T14:17:50.056Z,29.01
2019-02-14T14:21:55.745Z,33.70
2019-02-14T14:26:01.448Z,30.65
2019-02-14T14:31:16.594Z,30.57
2019-02-14T14:35:22.331Z,32.33
2019-02-14T14:40:17.024Z,28.75
2019-02-14T14:44:26.863Z,34.13
2019-02-14T14:49:17.513Z,33.41
2019-02-14T14:53:23.231Z,30.85
2019-02-14T14:58:16.897Z,34.86
2019-02-14T15:02:22.603Z,32.77
2019-02-14T15:07:16.201Z,34.56
2019-02-14T15:11:21.918Z,35.53
2019-02-14T15:15:27.618Z,35.11
2019-02-14T15:19:34.951Z,35.09
2019-02-14T15:23:40.670Z,32.17
2019-02-14T15:27:46.363Z,32.56
2019-02-14T15:31:52.078Z,34.04
2019-02-14T15:35:57.769Z,31.87
2019-02-14T15:40:09.236Z,34.77
2019-02-14T15:44:18.295Z,35.15
2019-02-14T15:48:24.000Z,36.11
2019-02-14T15:52:32.133Z,32.33
2019-02-14T15:56:37.165Z,36.34
2019-02-14T16:00:43.028Z,34.99
2019-02-14T16:04:50.830Z,35.56
2019-02-14T16:08:57.184Z,33.88
2019-02-14T16:13:17.710Z,34.62
2019-02-14T16:17:23.484Z,35.78
2019-02-14T16:21:31.525Z,35.60
2019-02-14T16:25:37.312Z,35.32
2019-02-14T16:29:43.013Z,35.36
2019-02-14T16:33:48.744Z,36.76
2019-02-14T16:37:54.421Z,36.99
2019-02-14T16:42:00.131Z,37.47
2019-02-14T16:46:05.826Z,37.53
2019-02-14T16:50:11.772Z,38.08
2019-02-14T16:54:17.455Z,39.97
2019-02-14T16:58:23.225Z,38.95
2019-02-14T17:02:29.034Z,38.55
2019-02-14T17:06:34.719Z,39.49
2019-02-14T17:10:40.507Z,40.89
2019-02-14T17:14:46.192Z,40.17
2019-02-14T17:18:51.887Z,41.34
2019-02-14T17:22:57.595Z,40.71
2019-02-14T17:27:03.386Z,39.69
2019-02-14T17:31:09.092Z,41.89
2019-02-14T17:35:14.935Z,46.02
2019-02-14T17:39:20.632Z,46.32
2019-02-14T17:43:26.391Z,39.30
2019-02-14T17:47:33.120Z,44.19
2019-02-14T17:51:38.796Z,41.16
2019-02-14T17:55:44.547Z,45.66
2019-02-14T17:59:50.305Z,42.81
2019-02-14T18:03:56.014Z,42.93
2019-02-14T18:08:01.724Z,44.07
2019-02-14T18:16:52.575Z,45.81
2019-02-14T18:20:58.313Z,45.68
2019-02-14T18:25:11.611Z,41.45
2019-02-14T18:29:17.372Z,42.63
2019-02-14T18:33:23.087Z,46.19
2019-02-14T18:37:28.855Z,42.02
2019-02-14T18:41:37.474Z,44.77
2019-02-14T18:45:41.969Z,44.16
2019-02-14T18:49:47.675Z,43.63
2019-02-14T18:53:53.555Z,46.70
2019-02-14T18:57:59.355Z,47.02
2019-02-14T19:02:05.055Z,42.93
2019-02-14T19:06:11.272Z,46.59
2019-02-14T19:10:18.145Z,46.91
2019-02-14T19:14:23.902Z,44.08
2019-02-14T19:18:31.116Z,46.21
2019-02-14T19:22:36.831Z,48.29
2019-02-14T19:26:44.324Z,44.49
2019-02-14T19:30:50.056Z,49.37
2019-02-14T19:34:55.742Z,45.80
2019-02-14T19:39:01.553Z,44.32
2019-02-14T19:43:07.249Z,44.28
2019-02-14T19:47:12.946Z,47.37
2019-02-14T19:51:21.758Z,48.39
2019-02-14T19:55:26.091Z,46.23
2019-02-14T19:59:31.802Z,48.31
2019-02-14T20:03:37.546Z,46.97
2019-02-14T20:07:43.252Z,44.54
2019-02-14T20:11:48.934Z,48.72
2019-02-14T20:15:54.735Z,47.61
2019-02-14T20:20:00.419Z,44.63
2019-02-14T20:24:06.313Z,45.36
2019-02-14T20:28:12.004Z,46.55
2019-02-14T20:32:17.744Z,45.57
2019-02-14T20:36:23.459Z,43.18
2019-02-14T20:40:29.267Z,48.67
2019-02-14T20:44:34.971Z,45.87
2019-02-14T20:48:40.655Z,46.30
2019-02-14T20:52:47.994Z,49.91
2019-02-14T20:56:53.715Z,47.18
2019-02-14T21:00:59.802Z,45.18
2019-02-14T21:05:06.802Z,49.80
2019-02-14T21:09:12.552Z,46.41
2019-02-14T21:13:18.493Z,43.08
2019-02-14T21:17:25.149Z,44.43
2019-02-14T21:21:30.916Z,50.72
2019-02-14T21:25:36.705Z,49.95
2019-02-14T21:29:44.180Z,46.94
2019-02-14T21:33:49.914Z,48.44
2019-02-14T21:37:55.999Z,48.30
2019-02-14T21:42:18.482Z,47.63
2019-02-14T21:46:09.122Z,44.63
2019-02-14T21:50:16.287Z,43.27
2019-02-14T21:54:22.067Z,50.68
2019-02-14T21:58:27.754Z,48.57
2019-02-14T22:06:53.050Z,50.51
2019-02-14T22:10:59.889Z,48.44
2019-02-14T22:15:21.037Z,43.37
2019-02-14T22:19:29.767Z,50.55
2019-02-14T22:23:35.487Z,46.02
2019-02-14T22:27:41.530Z,46.72
2019-02-14T22:31:47.240Z,45.99
2019-02-14T22:35:52.994Z,48.04
2019-02-14T22:39:59.677Z,46.30
2019-02-14T22:44:05.470Z,45.98
2019-02-14T22:48:11.162Z,46.61
2019-02-14T22:52:16.859Z,45.64
2019-02-14T22:56:22.623Z,51.10
2019-02-14T23:00:45.740Z,52.00
2019-02-14T23:04:51.501Z,47.85
2019-02-14T23:08:57.178Z,51.27
2019-02-14T23:13:02.855Z,50.70
2019-02-14T23:17:08.554Z,51.47
2019-02-14T23:21:14.242Z,46.96
2019-02-14T23:25:19.920Z,47.16
2019-02-14T23:29:25.653Z,50.52
2019-02-14T23:33:31.293Z,47.63
2019-02-14T23:37:36.983Z,51.66
2019-02-14T23:41:42.710Z,53.19
2019-02-14T23:45:48.503Z,49.40
2019-02-14T23:49:54.205Z,51.73
2019-02-14T23:53:59.902Z,51.02
2019-02-14T23:58:05.594Z,50.42
